sensor_id;sensor_type;location;lat;lon;timestamp;pressure;altitude;pressure_sealevel;temperature;humidity
57948;BME280;43754;56.992;24.292;2023-07-31T00:01:30;100640.72;;;15.27;100.00
57948;BME280;43754;56.992;24.292;2023-07-31T00:04:03;100641.94;;;15.24;100.00
57948;BME280;43754;56.992;24.292;2023-07-31T00:06:35;100644.06;;;15.22;100.00
57948;BME280;43754;56.992;24.292;2023-07-31T00:09:08;100641.16;;;15.24;100.00
57948;BME280;43754;56.992;24.292;2023-07-31T00:11:40;100637.59;;;15.30;100.00
57948;BME280;43754;56.992;24.292;2023-07-31T00:14:12;100643.56;;;15.38;100.00
57948;BME280;43754;56.992;24.292;2023-07-31T00:16:44;100640.63;;;15.46;100.00
57948;BME280;43754;56.992;24.292;2023-07-31T00:19:17;100637.97;;;15.53;100.00
57948;BME280;43754;56.992;24.292;2023-07-31T00:21:49;100635.25;;;15.53;100.00
57948;BME280;43754;56.992;24.292;2023-07-31T00:24:22;100638.34;;;15.56;100.00
57948;BME280;43754;56.992;24.292;2023-07-31T00:26:54;100640.41;;;15.61;100.00
57948;BME280;43754;56.992;24.292;2023-07-31T00:29:26;100653.91;;;15.61;100.00
57948;BME280;43754;56.992;24.292;2023-07-31T00:31:58;100639.75;;;15.65;100.00
57948;BME280;43754;56.992;24.292;2023-07-31T00:34:31;100644.28;;;15.72;100.00
57948;BME280;43754;56.992;24.292;2023-07-31T00:37:04;100640.13;;;15.76;100.00
57948;BME280;43754;56.992;24.292;2023-07-31T00:39:36;100644.25;;;15.78;100.00
57948;BME280;43754;56.992;24.292;2023-07-31T00:42:08;100641.72;;;15.83;100.00
57948;BME280;43754;56.992;24.292;2023-07-31T00:44:40;100647.38;;;15.82;100.00
57948;BME280;43754;56.992;24.292;2023-07-31T00:47:12;100649.84;;;15.83;100.00
57948;BME280;43754;56.992;24.292;2023-07-31T00:49:46;100647.75;;;15.85;100.00
57948;BME280;43754;56.992;24.292;2023-07-31T00:52:18;100643.78;;;15.88;100.00
57948;BME280;43754;56.992;24.292;2023-07-31T00:54:51;100642.53;;;15.90;100.00
57948;BME280;43754;56.992;24.292;2023-07-31T00:57:23;100644.38;;;15.96;100.00
57948;BME280;43754;56.992;24.292;2023-07-31T00:59:55;100642.06;;;16.00;100.00
57948;BME280;43754;56.992;24.292;2023-07-31T01:02:27;100634.56;;;16.02;100.00
57948;BME280;43754;56.992;24.292;2023-07-31T01:05:01;100635.53;;;16.07;100.00
57948;BME280;43754;56.992;24.292;2023-07-31T01:07:39;100628.25;;;16.08;100.00
57948;BME280;43754;56.992;24.292;2023-07-31T01:10:16;100635.34;;;16.09;100.00
57948;BME280;43754;56.992;24.292;2023-07-31T01:12:51;100634.94;;;16.05;100.00
57948;BME280;43754;56.992;24.292;2023-07-31T01:15:25;100623.13;;;16.00;100.00
57948;BME280;43754;56.992;24.292;2023-07-31T01:17:57;100628.59;;;15.93;100.00
57948;BME280;43754;56.992;24.292;2023-07-31T01:20:31;100624.28;;;15.86;100.00
57948;BME280;43754;56.992;24.292;2023-07-31T01:23:26;100624.53;;;15.78;100.00
57948;BME280;43754;56.992;24.292;2023-07-31T01:26:11;100620.81;;;15.65;100.00
57948;BME280;43754;56.992;24.292;2023-07-31T01:28:46;100624.41;;;15.59;100.00
57948;BME280;43754;56.992;24.292;2023-07-31T01:31:24;100621.13;;;15.51;100.00
57948;BME280;43754;56.992;24.292;2023-07-31T01:33:59;100629.41;;;15.49;100.00
57948;BME280;43754;56.992;24.292;2023-07-31T01:36:31;100624.88;;;15.43;100.00
57948;BME280;43754;56.992;24.292;2023-07-31T01:39:04;100616.56;;;15.38;100.00
57948;BME280;43754;56.992;24.292;2023-07-31T01:41:37;100623.63;;;15.39;100.00
57948;BME280;43754;56.992;24.292;2023-07-31T01:44:09;100620.69;;;15.41;100.00
57948;BME280;43754;56.992;24.292;2023-07-31T01:46:41;100614.69;;;15.39;100.00
57948;BME280;43754;56.992;24.292;2023-07-31T01:49:14;100620.69;;;15.41;100.00
57948;BME280;43754;56.992;24.292;2023-07-31T01:51:46;100611.75;;;15.47;100.00
57948;BME280;43754;56.992;24.292;2023-07-31T01:54:18;100619.25;;;15.51;100.00
57948;BME280;43754;56.992;24.292;2023-07-31T01:56:52;100620.28;;;15.50;100.00
57948;BME280;43754;56.992;24.292;2023-07-31T01:59:24;100626.53;;;15.51;100.00
57948;BME280;43754;56.992;24.292;2023-07-31T02:01:56;100627.34;;;15.51;100.00
57948;BME280;43754;56.992;24.292;2023-07-31T02:04:28;100624.00;;;15.56;100.00
57948;BME280;43754;56.992;24.292;2023-07-31T02:07:00;100617.97;;;15.54;100.00
57948;BME280;43754;56.992;24.292;2023-07-31T02:09:32;100615.91;;;15.56;100.00
57948;BME280;43754;56.992;24.292;2023-07-31T02:12:06;100619.66;;;15.55;100.00
57948;BME280;43754;56.992;24.292;2023-07-31T02:14:40;100624.00;;;15.56;100.00
57948;BME280;43754;56.992;24.292;2023-07-31T02:17:12;100622.97;;;15.57;100.00
57948;BME280;43754;56.992;24.292;2023-07-31T02:19:44;100626.00;;;15.74;100.00
57948;BME280;43754;56.992;24.292;2023-07-31T02:22:16;100625.09;;;15.86;100.00
57948;BME280;43754;56.992;24.292;2023-07-31T02:24:48;100629.41;;;15.94;100.00
57948;BME280;43754;56.992;24.292;2023-07-31T02:27:22;100615.25;;;15.98;100.00
57948;BME280;43754;56.992;24.292;2023-07-31T02:29:59;100623.75;;;16.02;100.00
57948;BME280;43754;56.992;24.292;2023-07-31T02:32:31;100627.44;;;16.07;100.00
57948;BME280;43754;56.992;24.292;2023-07-31T02:35:04;100616.59;;;16.14;100.00
57948;BME280;43754;56.992;24.292;2023-07-31T02:37:36;100610.75;;;16.17;100.00
57948;BME280;43754;56.992;24.292;2023-07-31T02:40:09;100610.28;;;16.20;100.00
57948;BME280;43754;56.992;24.292;2023-07-31T02:42:43;100620.91;;;16.22;100.00
57948;BME280;43754;56.992;24.292;2023-07-31T02:45:16;100616.53;;;16.21;100.00
57948;BME280;43754;56.992;24.292;2023-07-31T02:47:48;100627.13;;;16.22;100.00
57948;BME280;43754;56.992;24.292;2023-07-31T02:50:20;100629.50;;;16.12;100.00
57948;BME280;43754;56.992;24.292;2023-07-31T02:52:52;100626.63;;;16.07;100.00
57948;BME280;43754;56.992;24.292;2023-07-31T02:55:24;100627.44;;;16.07;100.00
57948;BME280;43754;56.992;24.292;2023-07-31T02:57:58;100630.31;;;16.13;100.00
57948;BME280;43754;56.992;24.292;2023-07-31T03:00:30;100625.91;;;16.18;100.00
57948;BME280;43754;56.992;24.292;2023-07-31T03:03:02;100626.31;;;16.22;100.00
57948;BME280;43754;56.992;24.292;2023-07-31T03:05:35;100635.19;;;16.29;100.00
57948;BME280;43754;56.992;24.292;2023-07-31T03:08:07;100630.16;;;16.32;100.00
57948;BME280;43754;56.992;24.292;2023-07-31T03:10:39;100639.75;;;16.35;100.00
57948;BME280;43754;56.992;24.292;2023-07-31T03:13:12;100639.28;;;16.38;100.00
57948;BME280;43754;56.992;24.292;2023-07-31T03:15:44;100644.66;;;16.44;100.00
57948;BME280;43754;56.992;24.292;2023-07-31T03:18:16;100648.72;;;16.53;100.00
57948;BME280;43754;56.992;24.292;2023-07-31T03:20:48;100629.56;;;16.55;100.00
57948;BME280;43754;56.992;24.292;2023-07-31T03:23:21;100631.03;;;16.58;100.00
57948;BME280;43754;56.992;24.292;2023-07-31T03:25:56;100628.31;;;16.58;100.00
57948;BME280;43754;56.992;24.292;2023-07-31T03:28:33;100627.28;;;16.59;100.00
57948;BME280;43754;56.992;24.292;2023-07-31T03:31:06;100634.75;;;16.63;100.00
57948;BME280;43754;56.992;24.292;2023-07-31T03:33:40;100633.88;;;16.69;100.00
57948;BME280;43754;56.992;24.292;2023-07-31T03:36:12;100628.16;;;16.77;100.00
57948;BME280;43754;56.992;24.292;2023-07-31T03:38:44;100627.03;;;16.85;100.00
57948;BME280;43754;56.992;24.292;2023-07-31T03:41:16;100631.13;;;16.94;100.00
57948;BME280;43754;56.992;24.292;2023-07-31T03:43:51;100632.63;;;17.08;100.00
57948;BME280;43754;56.992;24.292;2023-07-31T03:46:28;100638.56;;;17.17;100.00
57948;BME280;43754;56.992;24.292;2023-07-31T03:49:00;100651.44;;;17.21;100.00
57948;BME280;43754;56.992;24.292;2023-07-31T03:51:32;100644.31;;;17.27;100.00
57948;BME280;43754;56.992;24.292;2023-07-31T03:54:05;100641.81;;;17.25;100.00
57948;BME280;43754;56.992;24.292;2023-07-31T03:56:39;100646.41;;;17.25;100.00
57948;BME280;43754;56.992;24.292;2023-07-31T03:59:13;100646.03;;;17.21;100.00
57948;BME280;43754;56.992;24.292;2023-07-31T04:01:45;100641.06;;;17.18;100.00
57948;BME280;43754;56.992;24.292;2023-07-31T04:04:17;100644.16;;;17.22;100.00
57948;BME280;43754;56.992;24.292;2023-07-31T04:06:49;100644.66;;;17.30;100.00
57948;BME280;43754;56.992;24.292;2023-07-31T04:09:21;100636.09;;;17.33;100.00
57948;BME280;43754;56.992;24.292;2023-07-31T04:11:53;100635.19;;;17.39;100.00
57948;BME280;43754;56.992;24.292;2023-07-31T04:14:26;100641.88;;;17.55;100.00
57948;BME280;43754;56.992;24.292;2023-07-31T04:16:58;100647.34;;;17.85;100.00
57948;BME280;43754;56.992;24.292;2023-07-31T04:19:30;100634.66;;;18.38;100.00
57948;BME280;43754;56.992;24.292;2023-07-31T04:22:03;100639.59;;;18.42;100.00
57948;BME280;43754;56.992;24.292;2023-07-31T04:24:35;100638.66;;;18.36;100.00
57948;BME280;43754;56.992;24.292;2023-07-31T04:27:07;100641.72;;;18.28;100.00
57948;BME280;43754;56.992;24.292;2023-07-31T04:29:41;100640.19;;;18.32;100.00
57948;BME280;43754;56.992;24.292;2023-07-31T04:32:14;100646.31;;;18.39;100.00
57948;BME280;43754;56.992;24.292;2023-07-31T04:34:48;100644.19;;;18.41;100.00
57948;BME280;43754;56.992;24.292;2023-07-31T04:37:20;100638.88;;;18.23;100.00
57948;BME280;43754;56.992;24.292;2023-07-31T04:39:52;100653.97;;;18.19;100.00
57948;BME280;43754;56.992;24.292;2023-07-31T04:42:24;100647.00;;;18.23;100.00
57948;BME280;43754;56.992;24.292;2023-07-31T04:44:58;100649.25;;;18.26;100.00
57948;BME280;43754;56.992;24.292;2023-07-31T04:47:30;100638.72;;;18.18;100.00
57948;BME280;43754;56.992;24.292;2023-07-31T04:50:02;100640.94;;;18.09;100.00
57948;BME280;43754;56.992;24.292;2023-07-31T04:52:34;100632.72;;;18.16;100.00
57948;BME280;43754;56.992;24.292;2023-07-31T04:55:07;100629.19;;;18.27;100.00
57948;BME280;43754;56.992;24.292;2023-07-31T04:57:39;100634.66;;;18.38;100.00
57948;BME280;43754;56.992;24.292;2023-07-31T05:00:13;100632.94;;;18.56;100.00
57948;BME280;43754;56.992;24.292;2023-07-31T05:02:45;100632.09;;;18.67;100.00
57948;BME280;43754;56.992;24.292;2023-07-31T05:05:17;100629.50;;;18.72;100.00
57948;BME280;43754;56.992;24.292;2023-07-31T05:07:49;100639.19;;;18.68;100.00
57948;BME280;43754;56.992;24.292;2023-07-31T05:10:21;100629.75;;;18.70;100.00
57948;BME280;43754;56.992;24.292;2023-07-31T05:12:53;100637.44;;;18.85;100.00
57948;BME280;43754;56.992;24.292;2023-07-31T05:15:26;100638.97;;;18.93;100.00
57948;BME280;43754;56.992;24.292;2023-07-31T05:17:58;100640.16;;;18.85;100.00
57948;BME280;43754;56.992;24.292;2023-07-31T05:20:30;100633.66;;;18.86;100.00
57948;BME280;43754;56.992;24.292;2023-07-31T05:23:02;100634.50;;;18.87;100.00
57948;BME280;43754;56.992;24.292;2023-07-31T05:25:34;100639.09;;;18.86;100.00
57948;BME280;43754;56.992;24.292;2023-07-31T05:28:06;100642.97;;;18.90;100.00
57948;BME280;43754;56.992;24.292;2023-07-31T05:30:40;100638.38;;;19.02;100.00
57948;BME280;43754;56.992;24.292;2023-07-31T05:33:12;100641.91;;;19.14;100.00
57948;BME280;43754;56.992;24.292;2023-07-31T05:35:45;100643.66;;;19.20;100.00
57948;BME280;43754;56.992;24.292;2023-07-31T05:38:18;100638.31;;;19.25;100.00
57948;BME280;43754;56.992;24.292;2023-07-31T05:40:50;100653.09;;;19.29;100.00
57948;BME280;43754;56.992;24.292;2023-07-31T05:43:22;100649.09;;;19.32;100.00
57948;BME280;43754;56.992;24.292;2023-07-31T05:45:55;100649.75;;;19.51;100.00
57948;BME280;43754;56.992;24.292;2023-07-31T05:48:28;100649.31;;;19.82;100.00
57948;BME280;43754;56.992;24.292;2023-07-31T05:51:00;100650.38;;;20.09;100.00
57948;BME280;43754;56.992;24.292;2023-07-31T05:53:32;100647.69;;;20.26;100.00
57948;BME280;43754;56.992;24.292;2023-07-31T05:56:04;100660.81;;;20.29;100.00
57948;BME280;43754;56.992;24.292;2023-07-31T05:58:36;100658.72;;;20.19;100.00
57948;BME280;43754;56.992;24.292;2023-07-31T06:01:09;100660.28;;;20.15;100.00
57948;BME280;43754;56.992;24.292;2023-07-31T06:03:41;100649.22;;;20.05;100.00
57948;BME280;43754;56.992;24.292;2023-07-31T06:06:13;100638.50;;;19.99;100.00
57948;BME280;43754;56.992;24.292;2023-07-31T06:08:45;100641.09;;;19.94;100.00
57948;BME280;43754;56.992;24.292;2023-07-31T06:11:18;100639.00;;;19.84;100.00
57948;BME280;43754;56.992;24.292;2023-07-31T06:13:50;100635.13;;;19.80;100.00
57948;BME280;43754;56.992;24.292;2023-07-31T06:16:24;100642.03;;;19.99;100.00
57948;BME280;43754;56.992;24.292;2023-07-31T06:18:56;100647.75;;;20.14;100.00
57948;BME280;43754;56.992;24.292;2023-07-31T06:21:28;100631.94;;;20.28;100.00
57948;BME280;43754;56.992;24.292;2023-07-31T06:24:02;100644.75;;;20.44;100.00
57948;BME280;43754;56.992;24.292;2023-07-31T06:26:34;100645.59;;;20.45;100.00
57948;BME280;43754;56.992;24.292;2023-07-31T06:29:06;100650.94;;;20.73;100.00
57948;BME280;43754;56.992;24.292;2023-07-31T06:31:40;100657.72;;;20.87;100.00
57948;BME280;43754;56.992;24.292;2023-07-31T06:34:12;100655.28;;;21.46;100.00
57948;BME280;43754;56.992;24.292;2023-07-31T06:36:44;100652.69;;;21.78;100.00
57948;BME280;43754;56.992;24.292;2023-07-31T06:39:16;100654.75;;;21.92;100.00
57948;BME280;43754;56.992;24.292;2023-07-31T06:41:49;100648.81;;;21.95;100.00
57948;BME280;43754;56.992;24.292;2023-07-31T06:44:21;100655.59;;;21.71;100.00
57948;BME280;43754;56.992;24.292;2023-07-31T06:46:54;100657.06;;;21.57;100.00
57948;BME280;43754;56.992;24.292;2023-07-31T06:49:26;100660.25;;;21.49;100.00
57948;BME280;43754;56.992;24.292;2023-07-31T06:51:58;100662.75;;;21.55;100.00
57948;BME280;43754;56.992;24.292;2023-07-31T06:54:30;100669.50;;;21.48;100.00
57948;BME280;43754;56.992;24.292;2023-07-31T06:57:02;100670.94;;;21.55;100.00
57948;BME280;43754;56.992;24.292;2023-07-31T06:59:35;100662.13;;;21.70;100.00
57948;BME280;43754;56.992;24.292;2023-07-31T07:02:08;100670.88;;;21.72;100.00
57948;BME280;43754;56.992;24.292;2023-07-31T07:04:40;100676.09;;;21.52;100.00
57948;BME280;43754;56.992;24.292;2023-07-31T07:07:13;100670.88;;;21.50;100.00
57948;BME280;43754;56.992;24.292;2023-07-31T07:09:45;100669.56;;;21.75;100.00
57948;BME280;43754;56.992;24.292;2023-07-31T07:12:18;100666.00;;;21.74;100.00
57948;BME280;43754;56.992;24.292;2023-07-31T07:14:50;100662.44;;;21.52;100.00
57948;BME280;43754;56.992;24.292;2023-07-31T07:17:27;100656.47;;;21.77;100.00
57948;BME280;43754;56.992;24.292;2023-07-31T07:19:59;100652.94;;;22.25;100.00
57948;BME280;43754;56.992;24.292;2023-07-31T07:22:32;100653.75;;;22.57;100.00
57948;BME280;43754;56.992;24.292;2023-07-31T07:25:04;100649.63;;;22.86;100.00
57948;BME280;43754;56.992;24.292;2023-07-31T07:27:36;100644.03;;;23.13;97.57
57948;BME280;43754;56.992;24.292;2023-07-31T07:30:09;100645.69;;;23.14;97.23
57948;BME280;43754;56.992;24.292;2023-07-31T07:32:42;100652.38;;;22.86;98.09
57948;BME280;43754;56.992;24.292;2023-07-31T07:35:17;100651.06;;;22.94;96.65
57948;BME280;43754;56.992;24.292;2023-07-31T07:37:49;100652.28;;;22.76;99.42
57948;BME280;43754;56.992;24.292;2023-07-31T07:40:24;100655.47;;;22.68;98.99
57948;BME280;43754;56.992;24.292;2023-07-31T07:42:56;100654.88;;;22.61;99.15
57948;BME280;43754;56.992;24.292;2023-07-31T07:45:28;100652.69;;;22.58;99.54
57948;BME280;43754;56.992;24.292;2023-07-31T07:48:01;100655.97;;;22.60;99.03
57948;BME280;43754;56.992;24.292;2023-07-31T07:50:34;100653.28;;;22.65;99.36
57948;BME280;43754;56.992;24.292;2023-07-31T07:53:05;100653.16;;;23.24;98.32
57948;BME280;43754;56.992;24.292;2023-07-31T07:55:38;100649.78;;;23.64;95.42
57948;BME280;43754;56.992;24.292;2023-07-31T07:58:10;100646.44;;;23.47;94.32
57948;BME280;43754;56.992;24.292;2023-07-31T08:00:48;100649.22;;;23.10;96.72
57948;BME280;43754;56.992;24.292;2023-07-31T08:03:22;100642.13;;;23.14;96.27
57948;BME280;43754;56.992;24.292;2023-07-31T08:05:57;100637.34;;;23.36;96.01
57948;BME280;43754;56.992;24.292;2023-07-31T08:08:30;100635.59;;;23.15;95.25
57948;BME280;43754;56.992;24.292;2023-07-31T08:11:02;100629.88;;;23.21;95.30
57948;BME280;43754;56.992;24.292;2023-07-31T08:13:34;100626.06;;;23.22;96.78
57948;BME280;43754;56.992;24.292;2023-07-31T08:16:08;100629.16;;;23.41;95.63
57948;BME280;43754;56.992;24.292;2023-07-31T08:18:42;100622.03;;;23.40;93.73
57948;BME280;43754;56.992;24.292;2023-07-31T08:21:15;100631.81;;;23.21;94.79
57948;BME280;43754;56.992;24.292;2023-07-31T08:23:47;100630.59;;;23.49;93.36
57948;BME280;43754;56.992;24.292;2023-07-31T08:26:19;100638.09;;;23.83;91.74
57948;BME280;43754;56.992;24.292;2023-07-31T08:28:52;100631.03;;;24.08;92.59
57948;BME280;43754;56.992;24.292;2023-07-31T08:31:24;100629.34;;;23.87;90.82
57948;BME280;43754;56.992;24.292;2023-07-31T08:33:58;100635.63;;;23.92;89.62
57948;BME280;43754;56.992;24.292;2023-07-31T08:36:30;100637.84;;;23.95;90.82
57948;BME280;43754;56.992;24.292;2023-07-31T08:39:02;100643.63;;;24.04;88.36
57948;BME280;43754;56.992;24.292;2023-07-31T08:41:37;100633.78;;;24.08;89.09
57948;BME280;43754;56.992;24.292;2023-07-31T08:44:10;100643.97;;;24.38;86.17
57948;BME280;43754;56.992;24.292;2023-07-31T08:46:43;100638.47;;;24.68;83.85
57948;BME280;43754;56.992;24.292;2023-07-31T08:49:17;100633.53;;;24.75;82.03
57948;BME280;43754;56.992;24.292;2023-07-31T08:51:52;100628.31;;;24.68;79.24
57948;BME280;43754;56.992;24.292;2023-07-31T08:54:24;100629.44;;;24.62;81.50
57948;BME280;43754;56.992;24.292;2023-07-31T08:56:56;100631.38;;;24.67;81.81
57948;BME280;43754;56.992;24.292;2023-07-31T08:59:31;100636.28;;;24.45;82.76
57948;BME280;43754;56.992;24.292;2023-07-31T09:02:08;100642.53;;;24.00;83.05
57948;BME280;43754;56.992;24.292;2023-07-31T09:04:42;100641.13;;;23.87;83.71
57948;BME280;43754;56.992;24.292;2023-07-31T09:07:14;100632.44;;;24.15;83.65
57948;BME280;43754;56.992;24.292;2023-07-31T09:09:47;100625.88;;;24.42;80.57
57948;BME280;43754;56.992;24.292;2023-07-31T09:12:19;100613.56;;;24.49;81.11
57948;BME280;43754;56.992;24.292;2023-07-31T09:14:51;100630.25;;;24.33;80.45
57948;BME280;43754;56.992;24.292;2023-07-31T09:17:29;100638.16;;;24.04;82.12
57948;BME280;43754;56.992;24.292;2023-07-31T09:20:14;100633.94;;;23.76;84.51
57948;BME280;43754;56.992;24.292;2023-07-31T09:22:47;100633.03;;;23.45;84.96
57948;BME280;43754;56.992;24.292;2023-07-31T09:25:21;100633.44;;;23.17;86.05
57948;BME280;43754;56.992;24.292;2023-07-31T09:27:55;100641.44;;;22.86;89.06
57948;BME280;43754;56.992;24.292;2023-07-31T09:30:27;100652.25;;;22.71;90.38
57948;BME280;43754;56.992;24.292;2023-07-31T09:33:03;100650.97;;;22.52;94.16
57948;BME280;43754;56.992;24.292;2023-07-31T09:35:37;100661.06;;;22.20;98.50
57948;BME280;43754;56.992;24.292;2023-07-31T09:38:11;100673.28;;;21.90;100.00
57948;BME280;43754;56.992;24.292;2023-07-31T09:40:45;100675.72;;;21.65;100.00
57948;BME280;43754;56.992;24.292;2023-07-31T09:43:18;100666.31;;;21.56;100.00
57948;BME280;43754;56.992;24.292;2023-07-31T09:45:55;100667.06;;;21.30;100.00
57948;BME280;43754;56.992;24.292;2023-07-31T09:48:28;100662.47;;;21.14;100.00
57948;BME280;43754;56.992;24.292;2023-07-31T09:51:04;100671.38;;;20.92;100.00
57948;BME280;43754;56.992;24.292;2023-07-31T09:53:36;100663.97;;;20.71;100.00
57948;BME280;43754;56.992;24.292;2023-07-31T09:56:09;100667.13;;;20.63;100.00
57948;BME280;43754;56.992;24.292;2023-07-31T09:58:41;100671.25;;;20.65;100.00
57948;BME280;43754;56.992;24.292;2023-07-31T10:01:13;100676.03;;;20.75;100.00
57948;BME280;43754;56.992;24.292;2023-07-31T10:03:46;100681.31;;;20.82;100.00
57948;BME280;43754;56.992;24.292;2023-07-31T10:06:19;100682.63;;;20.96;100.00
57948;BME280;43754;56.992;24.292;2023-07-31T10:08:52;100682.03;;;21.10;100.00
57948;BME280;43754;56.992;24.292;2023-07-31T10:11:27;100682.47;;;21.19;100.00
57948;BME280;43754;56.992;24.292;2023-07-31T10:14:01;100683.78;;;21.17;100.00
57948;BME280;43754;56.992;24.292;2023-07-31T10:16:37;100685.34;;;21.13;100.00
57948;BME280;43754;56.992;24.292;2023-07-31T10:19:10;100692.03;;;21.05;100.00
57948;BME280;43754;56.992;24.292;2023-07-31T10:21:45;100686.16;;;20.96;100.00
57948;BME280;43754;56.992;24.292;2023-07-31T10:24:18;100693.19;;;20.92;100.00
57948;BME280;43754;56.992;24.292;2023-07-31T10:26:52;100695.34;;;20.90;100.00
57948;BME280;43754;56.992;24.292;2023-07-31T10:29:25;100690.47;;;20.92;100.00
57948;BME280;43754;56.992;24.292;2023-07-31T10:31:58;100674.38;;;21.07;100.00
57948;BME280;43754;56.992;24.292;2023-07-31T10:34:31;100677.09;;;21.24;100.00
57948;BME280;43754;56.992;24.292;2023-07-31T10:37:24;100672.28;;;21.75;100.00
57948;BME280;43754;56.992;24.292;2023-07-31T10:39:58;100664.28;;;22.43;100.00
57948;BME280;43754;56.992;24.292;2023-07-31T10:42:33;100655.84;;;22.77;100.00
57948;BME280;43754;56.992;24.292;2023-07-31T10:45:09;100664.88;;;22.77;100.00
57948;BME280;43754;56.992;24.292;2023-07-31T10:47:45;100661.25;;;22.72;100.00
57948;BME280;43754;56.992;24.292;2023-07-31T10:50:18;100661.66;;;22.54;100.00
57948;BME280;43754;56.992;24.292;2023-07-31T10:52:53;100662.28;;;22.34;100.00
57948;BME280;43754;56.992;24.292;2023-07-31T10:58:05;100643.91;;;22.24;100.00
57948;BME280;43754;56.992;24.292;2023-07-31T11:00:39;100635.06;;;22.12;100.00
57948;BME280;43754;56.992;24.292;2023-07-31T11:03:13;100624.34;;;22.06;100.00
57948;BME280;43754;56.992;24.292;2023-07-31T11:05:51;100614.72;;;21.98;100.00
57948;BME280;43754;56.992;24.292;2023-07-31T11:08:27;100595.53;;;22.20;100.00
57948;BME280;43754;56.992;24.292;2023-07-31T11:11:07;100589.94;;;22.36;100.00
57948;BME280;43754;56.992;24.292;2023-07-31T11:13:41;100604.69;;;22.35;100.00
57948;BME280;43754;56.992;24.292;2023-07-31T11:16:14;100617.28;;;22.73;100.00
57948;BME280;43754;56.992;24.292;2023-07-31T11:18:47;100610.13;;;23.09;100.00
57948;BME280;43754;56.992;24.292;2023-07-31T11:21:21;100601.72;;;23.26;100.00
57948;BME280;43754;56.992;24.292;2023-07-31T11:23:56;100602.38;;;23.43;100.00
57948;BME280;43754;56.992;24.292;2023-07-31T11:26:32;100606.50;;;23.51;96.82
57948;BME280;43754;56.992;24.292;2023-07-31T11:29:10;100615.88;;;23.70;96.10
57948;BME280;43754;56.992;24.292;2023-07-31T11:31:43;100616.66;;;23.55;93.54
57948;BME280;43754;56.992;24.292;2023-07-31T11:34:16;100625.84;;;23.39;94.17
57948;BME280;43754;56.992;24.292;2023-07-31T11:36:53;100615.00;;;23.49;95.51
57948;BME280;43754;56.992;24.292;2023-07-31T11:39:26;100616.28;;;23.36;96.49
57948;BME280;43754;56.992;24.292;2023-07-31T11:41:59;100620.03;;;23.20;98.64
57948;BME280;43754;56.992;24.292;2023-07-31T11:44:38;100615.50;;;22.94;100.00
57948;BME280;43754;56.992;24.292;2023-07-31T11:47:10;100614.16;;;22.97;97.66
57948;BME280;43754;56.992;24.292;2023-07-31T11:49:43;100603.81;;;23.04;96.48
57948;BME280;43754;56.992;24.292;2023-07-31T11:52:15;100601.22;;;23.29;97.05
57948;BME280;43754;56.992;24.292;2023-07-31T11:54:50;100608.47;;;23.65;96.13
57948;BME280;43754;56.992;24.292;2023-07-31T11:57:23;100608.56;;;23.96;94.46
57948;BME280;43754;56.992;24.292;2023-07-31T11:59:56;100604.22;;;24.20;93.86
57948;BME280;43754;56.992;24.292;2023-07-31T12:02:28;100596.56;;;24.37;91.16
57948;BME280;43754;56.992;24.292;2023-07-31T12:05:01;100603.44;;;24.30;92.20
57948;BME280;43754;56.992;24.292;2023-07-31T12:07:44;100597.06;;;24.14;90.38
57948;BME280;43754;56.992;24.292;2023-07-31T12:10:29;100608.28;;;24.02;91.58
57948;BME280;43754;56.992;24.292;2023-07-31T12:13:03;100595.03;;;23.49;91.83
57948;BME280;43754;56.992;24.292;2023-07-31T12:15:40;100603.59;;;23.15;93.80
57948;BME280;43754;56.992;24.292;2023-07-31T12:18:14;100597.50;;;22.98;93.87
57948;BME280;43754;56.992;24.292;2023-07-31T12:20:47;100598.78;;;22.85;94.03
57948;BME280;43754;56.992;24.292;2023-07-31T12:23:22;100598.06;;;23.05;92.78
57948;BME280;43754;56.992;24.292;2023-07-31T12:26:02;100599.31;;;23.29;90.62
57948;BME280;43754;56.992;24.292;2023-07-31T12:28:36;100596.06;;;23.37;93.57
57948;BME280;43754;56.992;24.292;2023-07-31T12:31:11;100598.75;;;23.32;92.92
57948;BME280;43754;56.992;24.292;2023-07-31T12:33:44;100593.44;;;23.63;90.67
57948;BME280;43754;56.992;24.292;2023-07-31T12:36:18;100595.63;;;23.66;89.49
57948;BME280;43754;56.992;24.292;2023-07-31T12:38:52;100595.97;;;24.00;88.87
57948;BME280;43754;56.992;24.292;2023-07-31T12:41:26;100597.06;;;23.99;83.70
57948;BME280;43754;56.992;24.292;2023-07-31T12:43:59;100598.59;;;23.49;87.11
57948;BME280;43754;56.992;24.292;2023-07-31T12:46:31;100591.72;;;23.47;86.12
57948;BME280;43754;56.992;24.292;2023-07-31T12:49:03;100589.34;;;23.75;86.36
57948;BME280;43754;56.992;24.292;2023-07-31T12:51:35;100586.09;;;23.83;85.63
57948;BME280;43754;56.992;24.292;2023-07-31T12:54:07;100582.81;;;24.07;83.89
57948;BME280;43754;56.992;24.292;2023-07-31T12:56:41;100584.47;;;24.08;82.36
57948;BME280;43754;56.992;24.292;2023-07-31T12:59:13;100579.00;;;24.08;82.96
57948;BME280;43754;56.992;24.292;2023-07-31T13:01:46;100578.19;;;24.17;82.03
57948;BME280;43754;56.992;24.292;2023-07-31T13:04:18;100570.81;;;24.33;80.90
57948;BME280;43754;56.992;24.292;2023-07-31T13:06:50;100573.53;;;24.38;81.85